sensor_id;sensor_type;location;lat;lon;timestamp;pressure;altitude;pressure_sealevel;temperature;humidity
67052;BME280;53957;47.222;18.670;2023-03-23T00:02:42;100077.06;;;3.85;100.00
67052;BME280;53957;47.222;18.670;2023-03-23T00:05:45;100080.34;;;3.59;100.00
67052;BME280;53957;47.222;18.670;2023-03-23T00:08:53;100085.31;;;3.72;100.00
67052;BME280;53957;47.222;18.670;2023-03-23T00:12:01;100084.19;;;3.68;100.00
67052;BME280;53957;47.222;18.670;2023-03-23T00:15:07;100080.50;;;3.35;100.00
67052;BME280;53957;47.222;18.670;2023-03-23T00:18:11;100085.09;;;3.28;100.00
67052;BME280;53957;47.222;18.670;2023-03-23T00:21:23;100076.72;;;3.31;100.00
67052;BME280;53957;47.222;18.670;2023-03-23T00:24:37;100078.06;;;3.16;100.00
67052;BME280;53957;47.222;18.670;2023-03-23T00:27:39;100071.53;;;3.19;100.00
67052;BME280;53957;47.222;18.670;2023-03-23T00:31:06;100067.03;;;3.19;100.00
67052;BME280;53957;47.222;18.670;2023-03-23T00:34:10;100057.91;;;3.56;100.00
67052;BME280;53957;47.222;18.670;2023-03-23T00:37:14;100057.50;;;3.47;100.00
67052;BME280;53957;47.222;18.670;2023-03-23T00:40:17;100058.94;;;3.55;100.00
67052;BME280;53957;47.222;18.670;2023-03-23T00:43:21;100049.56;;;3.30;100.00
67052;BME280;53957;47.222;18.670;2023-03-23T00:46:26;100052.50;;;3.17;100.00
67052;BME280;53957;47.222;18.670;2023-03-23T00:49:30;100043.41;;;3.25;100.00
67052;BME280;53957;47.222;18.670;2023-03-23T00:52:31;100046.59;;;3.27;100.00
67052;BME280;53957;47.222;18.670;2023-03-23T00:55:33;100047.47;;;3.15;100.00
67052;BME280;53957;47.222;18.670;2023-03-23T00:58:35;100033.75;;;3.30;100.00
67052;BME280;53957;47.222;18.670;2023-03-23T01:01:38;100033.00;;;3.18;100.00
67052;BME280;53957;47.222;18.670;2023-03-23T01:04:40;100040.75;;;3.08;100.00
67052;BME280;53957;47.222;18.670;2023-03-23T01:07:51;100038.31;;;2.89;100.00
67052;BME280;53957;47.222;18.670;2023-03-23T01:11:05;100033.31;;;3.04;100.00
67052;BME280;53957;47.222;18.670;2023-03-23T01:14:08;100038.62;;;2.93;100.00
67052;BME280;53957;47.222;18.670;2023-03-23T01:17:10;100035.72;;;2.77;100.00
67052;BME280;53957;47.222;18.670;2023-03-23T01:20:14;100030.28;;;3.13;100.00
67052;BME280;53957;47.222;18.670;2023-03-23T01:23:16;100029.31;;;3.02;100.00
67052;BME280;53957;47.222;18.670;2023-03-23T01:26:22;100025.66;;;3.03;100.00
67052;BME280;53957;47.222;18.670;2023-03-23T01:29:24;100033.56;;;3.03;100.00
67052;BME280;53957;47.222;18.670;2023-03-23T01:32:28;100033.13;;;2.65;100.00
67052;BME280;53957;47.222;18.670;2023-03-23T12:08:11;99986.13;;;20.33;39.72
67052;BME280;53957;47.222;18.670;2023-03-23T12:18:06;99978.28;;;20.67;41.29
67052;BME280;53957;47.222;18.670;2023-03-23T12:21:35;99990.03;;;20.90;40.71
67052;BME280;53957;47.222;18.670;2023-03-23T12:31:48;99961.91;;;20.79;39.06
67052;BME280;53957;47.222;18.670;2023-03-23T12:39:13;99940.81;;;20.88;39.47
67052;BME280;53957;47.222;18.670;2023-03-23T12:42:46;99936.53;;;20.87;39.04
67052;BME280;53957;47.222;18.670;2023-03-23T12:46:31;99939.37;;;20.95;39.31
67052;BME280;53957;47.222;18.670;2023-03-23T12:50:07;99944.09;;;20.98;38.54
67052;BME280;53957;47.222;18.670;2023-03-23T12:53:55;99934.88;;;20.83;39.20
67052;BME280;53957;47.222;18.670;2023-03-23T12:57:17;99936.12;;;20.85;38.88
67052;BME280;53957;47.222;18.670;2023-03-23T13:00:48;99923.81;;;21.38;39.78
67052;BME280;53957;47.222;18.670;2023-03-23T13:07:25;99914.44;;;20.66;39.45
67052;BME280;53957;47.222;18.670;2023-03-23T13:10:42;99925.97;;;20.82;40.28
67052;BME280;53957;47.222;18.670;2023-03-23T13:13:52;99928.09;;;20.92;39.21
67052;BME280;53957;47.222;18.670;2023-03-23T13:17:24;99921.84;;;20.88;39.29
67052;BME280;53957;47.222;18.670;2023-03-23T13:24:24;99918.34;;;20.88;38.77
67052;BME280;53957;47.222;18.670;2023-03-23T13:27:28;99912.28;;;20.75;39.01
67052;BME280;53957;47.222;18.670;2023-03-23T13:30:31;99915.97;;;20.86;38.71
67052;BME280;53957;47.222;18.670;2023-03-23T13:33:50;99906.53;;;21.23;39.04
67052;BME280;53957;47.222;18.670;2023-03-23T13:37:00;99906.12;;;20.98;38.92
67052;BME280;53957;47.222;18.670;2023-03-23T13:40:33;99896.06;;;20.98;39.12
67052;BME280;53957;47.222;18.670;2023-03-23T13:43:41;99896.41;;;20.54;39.48
67052;BME280;53957;47.222;18.670;2023-03-23T13:46:57;99895.72;;;20.80;38.77
67052;BME280;53957;47.222;18.670;2023-03-23T13:50:25;99887.25;;;20.62;38.36
67052;BME280;53957;47.222;18.670;2023-03-23T13:53:47;99883.81;;;20.65;38.10
67052;BME280;53957;47.222;18.670;2023-03-23T13:57:26;99886.16;;;20.67;39.15
67052;BME280;53957;47.222;18.670;2023-03-23T14:00:48;99885.19;;;20.75;39.02
67052;BME280;53957;47.222;18.670;2023-03-23T14:04:16;99882.22;;;20.41;39.24
67052;BME280;53957;47.222;18.670;2023-03-23T14:07:19;99876.16;;;20.48;39.66
67052;BME280;53957;47.222;18.670;2023-03-23T14:40:18;99878.03;;;20.86;38.94
67052;BME280;53957;47.222;18.670;2023-03-23T14:43:21;99878.78;;;20.44;39.56
67052;BME280;53957;47.222;18.670;2023-03-23T14:46:44;99883.91;;;20.49;40.43
67052;BME280;53957;47.222;18.670;2023-03-23T14:53:34;99867.25;;;20.47;39.11
67052;BME280;53957;47.222;18.670;2023-03-23T14:56:37;99867.66;;;20.30;39.76
67052;BME280;53957;47.222;18.670;2023-03-23T14:59:59;99876.38;;;20.19;41.06
67052;BME280;53957;47.222;18.670;2023-03-23T15:03:10;99876.97;;;20.29;40.81
67052;BME280;53957;47.222;18.670;2023-03-23T15:06:34;99878.09;;;20.27;40.43
67052;BME280;53957;47.222;18.670;2023-03-23T15:09:41;99883.06;;;20.45;40.08
67052;BME280;53957;47.222;18.670;2023-03-23T15:12:45;99876.66;;;20.53;41.13
67052;BME280;53957;47.222;18.670;2023-03-23T15:15:48;99877.72;;;20.09;40.89
67052;BME280;53957;47.222;18.670;2023-03-23T15:19:18;99880.16;;;20.15;41.04
67052;BME280;53957;47.222;18.670;2023-03-23T15:22:27;99877.97;;;19.85;41.32
67052;BME280;53957;47.222;18.670;2023-03-23T15:25:35;99869.41;;;19.83;42.30
67052;BME280;53957;47.222;18.670;2023-03-23T15:28:49;99874.44;;;19.65;42.63
67052;BME280;53957;47.222;18.670;2023-03-23T15:31:57;99880.38;;;19.54;43.30
67052;BME280;53957;47.222;18.670;2023-03-23T15:35:03;99879.50;;;19.50;43.87
67052;BME280;53957;47.222;18.670;2023-03-23T15:38:31;99873.94;;;19.43;44.60
67052;BME280;53957;47.222;18.670;2023-03-23T15:41:54;99872.81;;;19.28;45.05
67052;BME280;53957;47.222;18.670;2023-03-23T15:45:25;99864.09;;;19.19;45.49
67052;BME280;53957;47.222;18.670;2023-03-23T15:48:27;99854.34;;;19.14;46.10
67052;BME280;53957;47.222;18.670;2023-03-23T15:51:30;99847.44;;;19.01;47.86
67052;BME280;53957;47.222;18.670;2023-03-23T15:54:35;99851.69;;;18.86;46.90
67052;BME280;53957;47.222;18.670;2023-03-23T15:57:36;99866.41;;;18.88;46.45
67052;BME280;53957;47.222;18.670;2023-03-23T16:00:40;99860.91;;;18.85;46.74
67052;BME280;53957;47.222;18.670;2023-03-23T16:03:53;99867.62;;;18.75;47.13
67052;BME280;53957;47.222;18.670;2023-03-23T16:06:57;99859.66;;;18.66;47.86
67052;BME280;53957;47.222;18.670;2023-03-23T16:10:09;99861.16;;;18.63;48.04
67052;BME280;53957;47.222;18.670;2023-03-23T16:13:16;99865.59;;;18.56;48.35
67052;BME280;53957;47.222;18.670;2023-03-23T16:16:27;99863.06;;;18.34;49.97
67052;BME280;53957;47.222;18.670;2023-03-23T16:19:31;99850.00;;;18.08;51.09
67052;BME280;53957;47.222;18.670;2023-03-23T16:22:34;99858.00;;;18.05;52.30
67052;BME280;53957;47.222;18.670;2023-03-23T16:25:37;99862.06;;;17.86;51.73
67052;BME280;53957;47.222;18.670;2023-03-23T16:28:41;99860.84;;;17.71;53.44
67052;BME280;53957;47.222;18.670;2023-03-23T16:31:52;99860.53;;;17.48;54.06
67052;BME280;53957;47.222;18.670;2023-03-23T16:34:55;99865.16;;;17.35;54.90
67052;BME280;53957;47.222;18.670;2023-03-23T16:37:58;99865.38;;;17.17;55.10
67052;BME280;53957;47.222;18.670;2023-03-23T16:41:10;99870.53;;;17.10;55.04
67052;BME280;53957;47.222;18.670;2023-03-23T16:44:13;99870.81;;;16.96;55.23
67052;BME280;53957;47.222;18.670;2023-03-23T16:47:16;99865.13;;;16.77;54.47
67052;BME280;53957;47.222;18.670;2023-03-23T16:50:20;99874.97;;;16.60;54.47
67052;BME280;53957;47.222;18.670;2023-03-23T16:53:23;99872.56;;;16.46;54.77
67052;BME280;53957;47.222;18.670;2023-03-23T16:56:26;99877.09;;;16.33;55.46
67052;BME280;53957;47.222;18.670;2023-03-23T16:59:30;99876.59;;;16.19;56.12
67052;BME280;53957;47.222;18.670;2023-03-23T17:02:32;99869.44;;;16.02;56.52
67052;BME280;53957;47.222;18.670;2023-03-23T17:05:36;99877.63;;;15.84;57.87
67052;BME280;53957;47.222;18.670;2023-03-23T17:08:56;99870.53;;;15.50;58.48
67052;BME280;53957;47.222;18.670;2023-03-23T17:11:59;99878.63;;;15.41;59.95
67052;BME280;53957;47.222;18.670;2023-03-23T17:15:03;99877.25;;;15.26;59.87
67052;BME280;53957;47.222;18.670;2023-03-23T17:18:27;99866.13;;;15.06;60.21
67052;BME280;53957;47.222;18.670;2023-03-23T17:21:50;99872.44;;;15.02;60.61
67052;BME280;53957;47.222;18.670;2023-03-23T17:24:53;99873.00;;;14.69;62.05
67052;BME280;53957;47.222;18.670;2023-03-23T17:27:57;99875.66;;;14.60;62.78
67052;BME280;53957;47.222;18.670;2023-03-23T17:31:08;99880.88;;;14.39;63.84
67052;BME280;53957;47.222;18.670;2023-03-23T17:34:11;99887.81;;;14.05;65.47
67052;BME280;53957;47.222;18.670;2023-03-23T17:37:15;99881.91;;;13.76;67.13
67052;BME280;53957;47.222;18.670;2023-03-23T17:40:40;99887.44;;;13.80;67.46
67052;BME280;53957;47.222;18.670;2023-03-23T17:43:43;99894.13;;;13.42;69.62
67052;BME280;53957;47.222;18.670;2023-03-23T17:46:46;99892.53;;;13.41;69.82
67052;BME280;53957;47.222;18.670;2023-03-23T17:49:50;99900.25;;;13.11;70.96
67052;BME280;53957;47.222;18.670;2023-03-23T17:52:52;99905.25;;;13.04;71.32
67052;BME280;53957;47.222;18.670;2023-03-23T17:55:56;99916.19;;;12.94;71.77
67052;BME280;53957;47.222;18.670;2023-03-23T17:58:59;99915.09;;;12.95;71.89
67052;BME280;53957;47.222;18.670;2023-03-23T18:02:03;99918.16;;;12.79;73.40
67052;BME280;53957;47.222;18.670;2023-03-23T18:05:06;99924.37;;;12.66;74.29
67052;BME280;53957;47.222;18.670;2023-03-23T18:08:11;99920.81;;;12.56;75.42
67052;BME280;53957;47.222;18.670;2023-03-23T18:11:14;99918.78;;;12.53;76.13
67052;BME280;53957;47.222;18.670;2023-03-23T18:14:22;99924.41;;;12.52;76.62
67052;BME280;53957;47.222;18.670;2023-03-23T18:17:25;99920.94;;;12.51;76.64
67052;BME280;53957;47.222;18.670;2023-03-23T18:20:30;99919.47;;;12.45;77.23
67052;BME280;53957;47.222;18.670;2023-03-23T18:23:37;99920.56;;;12.44;77.79
67052;BME280;53957;47.222;18.670;2023-03-23T18:26:58;99928.97;;;12.51;77.68
67052;BME280;53957;47.222;18.670;2023-03-23T18:30:02;99925.50;;;12.51;77.67
67052;BME280;53957;47.222;18.670;2023-03-23T18:33:07;99937.75;;;12.66;76.68
67052;BME280;53957;47.222;18.670;2023-03-23T18:36:10;99937.31;;;12.72;76.18
67052;BME280;53957;47.222;18.670;2023-03-23T18:39:34;99941.50;;;12.87;75.24
67052;BME280;53957;47.222;18.670;2023-03-23T18:42:39;99946.31;;;12.99;74.55
67052;BME280;53957;47.222;18.670;2023-03-23T18:45:54;99951.00;;;12.94;74.86
67052;BME280;53957;47.222;18.670;2023-03-23T18:48:57;99936.66;;;12.89;74.93
67052;BME280;53957;47.222;18.670;2023-03-23T18:52:00;99946.41;;;12.85;75.06
67052;BME280;53957;47.222;18.670;2023-03-23T18:55:04;99949.91;;;12.95;74.42
67052;BME280;53957;47.222;18.670;2023-03-23T18:58:06;99949.78;;;12.77;75.00
67052;BME280;53957;47.222;18.670;2023-03-23T19:01:12;99947.44;;;12.76;75.36
67052;BME280;53957;47.222;18.670;2023-03-23T19:04:16;99944.50;;;12.63;75.98
67052;BME280;53957;47.222;18.670;2023-03-23T19:07:24;99946.25;;;12.68;75.67
67052;BME280;53957;47.222;18.670;2023-03-23T19:10:42;99947.56;;;12.56;76.37
67052;BME280;53957;47.222;18.670;2023-03-23T19:13:48;99950.28;;;12.43;76.88
67052;BME280;53957;47.222;18.670;2023-03-23T19:17:03;99943.06;;;12.43;76.91
67052;BME280;53957;47.222;18.670;2023-03-23T19:20:08;99947.78;;;12.23;77.72
67052;BME280;53957;47.222;18.670;2023-03-23T19:23:26;99945.69;;;12.20;77.86
67052;BME280;53957;47.222;18.670;2023-03-23T19:26:36;99941.84;;;12.13;78.38
67052;BME280;53957;47.222;18.670;2023-03-23T19:29:39;99933.09;;;12.21;78.03
67052;BME280;53957;47.222;18.670;2023-03-23T19:33:03;99925.34;;;12.33;77.58
67052;BME280;53957;47.222;18.670;2023-03-23T20:57:16;99950.91;;;12.26;76.40
67052;BME280;53957;47.222;18.670;2023-03-23T21:00:23;99957.88;;;11.99;78.00
67052;BME280;53957;47.222;18.670;2023-03-23T21:03:34;99953.88;;;11.54;81.19
67052;BME280;53957;47.222;18.670;2023-03-23T21:06:41;99954.41;;;11.23;84.35
67052;BME280;53957;47.222;18.670;2023-03-23T21:09:44;99955.03;;;11.01;87.13
67052;BME280;53957;47.222;18.670;2023-03-23T21:12:48;99945.59;;;10.57;90.85
67052;BME280;53957;47.222;18.670;2023-03-23T21:15:52;99950.47;;;10.69;89.10
67052;BME280;53957;47.222;18.670;2023-03-23T21:18:56;99938.38;;;10.38;91.34
67052;BME280;53957;47.222;18.670;2023-03-23T21:21:59;99946.66;;;10.37;91.29
67052;BME280;53957;47.222;18.670;2023-03-23T21:25:10;99935.28;;;10.07;94.06
67052;BME280;53957;47.222;18.670;2023-03-23T21:28:13;99937.72;;;9.84;95.73
67052;BME280;53957;47.222;18.670;2023-03-23T21:31:19;99945.00;;;9.73;96.25
67052;BME280;53957;47.222;18.670;2023-03-23T21:34:24;99941.50;;;9.78;96.01
67052;BME280;53957;47.222;18.670;2023-03-23T21:37:28;99944.38;;;9.57;97.92
67052;BME280;53957;47.222;18.670;2023-03-23T21:40:56;99953.56;;;9.46;97.78
67052;BME280;53957;47.222;18.670;2023-03-23T21:44:00;99944.25;;;9.67;96.41
67052;BME280;53957;47.222;18.670;2023-03-23T21:47:06;99947.66;;;9.49;98.17
67052;BME280;53957;47.222;18.670;2023-03-23T21:50:12;99945.09;;;9.39;99.30
67052;BME280;53957;47.222;18.670;2023-03-23T21:53:15;99949.34;;;9.40;99.50
67052;BME280;53957;47.222;18.670;2023-03-23T21:56:23;99948.50;;;9.15;100.00
67052;BME280;53957;47.222;18.670;2023-03-23T21:59:27;99949.63;;;9.09;100.00
67052;BME280;53957;47.222;18.670;2023-03-23T22:02:50;99952.31;;;9.03;100.00
67052;BME280;53957;47.222;18.670;2023-03-23T22:05:53;99952.47;;;9.17;100.00
67052;BME280;53957;47.222;18.670;2023-03-23T22:08:57;99956.13;;;8.92;100.00
67052;BME280;53957;47.222;18.670;2023-03-23T22:12:01;99959.59;;;9.22;100.00
67052;BME280;53957;47.222;18.670;2023-03-23T22:15:07;99956.50;;;9.10;100.00
67052;BME280;53957;47.222;18.670;2023-03-23T22:18:10;99954.25;;;9.27;100.00
67052;BME280;53957;47.222;18.670;2023-03-23T22:21:15;99948.97;;;9.76;96.31
67052;BME280;53957;47.222;18.670;2023-03-23T22:24:18;99953.47;;;9.80;96.37
67052;BME280;53957;47.222;18.670;2023-03-23T22:27:25;99947.50;;;9.64;96.99
67052;BME280;53957;47.222;18.670;2023-03-23T22:30:30;99956.22;;;9.46;99.31
67052;BME280;53957;47.222;18.670;2023-03-23T22:33:36;99958.41;;;9.39;99.87
67052;BME280;53957;47.222;18.670;2023-03-23T22:36:40;99959.22;;;9.05;100.00
67052;BME280;53957;47.222;18.670;2023-03-23T22:39:43;99950.88;;;8.82;100.00
67052;BME280;53957;47.222;18.670;2023-03-23T22:42:46;99953.16;;;8.99;100.00
67052;BME280;53957;47.222;18.670;2023-03-23T22:45:50;99961.28;;;9.13;100.00
67052;BME280;53957;47.222;18.670;2023-03-23T22:48:54;99954.31;;;9.17;100.00
67052;BME280;53957;47.222;18.670;2023-03-23T22:51:57;99952.28;;;9.09;100.00
67052;BME280;53957;47.222;18.670;2023-03-23T22:55:00;99962.25;;;8.93;100.00
67052;BME280;53957;47.222;18.670;2023-03-23T22:58:03;99968.97;;;8.80;100.00
67052;BME280;53957;47.222;18.670;2023-03-23T23:01:11;99970.59;;;8.76;100.00
67052;BME280;53957;47.222;18.670;2023-03-23T23:04:15;99971.09;;;8.78;100.00
67052;BME280;53957;47.222;18.670;2023-03-23T23:07:18;99966.44;;;8.64;100.00
67052;BME280;53957;47.222;18.670;2023-03-23T23:10:22;99970.56;;;8.81;100.00
67052;BME280;53957;47.222;18.670;2023-03-23T23:13:27;99972.03;;;8.58;100.00
67052;BME280;53957;47.222;18.670;2023-03-23T23:16:29;99973.09;;;8.62;100.00
67052;BME280;53957;47.222;18.670;2023-03-23T23:19:33;99974.75;;;8.47;100.00
67052;BME280;53957;47.222;18.670;2023-03-23T23:22:36;99985.66;;;8.46;100.00
67052;BME280;53957;47.222;18.670;2023-03-23T23:25:39;99978.19;;;8.48;100.00
67052;BME280;53957;47.222;18.670;2023-03-23T23:28:43;99966.53;;;8.38;100.00
67052;BME280;53957;47.222;18.670;2023-03-23T23:31:47;99972.00;;;8.02;100.00
67052;BME280;53957;47.222;18.670;2023-03-23T23:34:50;99976.69;;;8.26;100.00
67052;BME280;53957;47.222;18.670;2023-03-23T23:37:54;99974.41;;;7.94;100.00
67052;BME280;53957;47.222;18.670;2023-03-23T23:40:57;99976.84;;;7.80;100.00
67052;BME280;53957;47.222;18.670;2023-03-23T23:44:01;99975.81;;;7.70;100.00
67052;BME280;53957;47.222;18.670;2023-03-23T23:47:04;99975.56;;;7.67;100.00
67052;BME280;53957;47.222;18.670;2023-03-23T23:50:09;99973.72;;;7.62;100.00
67052;BME280;53957;47.222;18.670;2023-03-23T23:53:13;99970.00;;;7.48;100.00
67052;BME280;53957;47.222;18.670;2023-03-23T23:56:16;99969.19;;;7.63;100.00
67052;BME280;53957;47.222;18.670;2023-03-23T23:59:21;99965.25;;;7.24;100.00
